createdAt,value
2018-03-29T21:56:38.377Z,16.17
2018-03-29T21:59:04.386Z,16.16
2018-03-29T22:01:30.418Z,16.15
2018-03-29T22:03:57.351Z,16.13
2018-03-29T22:06:23.487Z,16.15
2018-03-29T22:09:05.567Z,16.14
2018-03-29T22:12:21.262Z,16.14
2018-03-29T22:14:47.489Z,16.12
2018-03-29T22:17:13.518Z,16.10
2018-03-29T22:19:39.531Z,16.10
2018-03-29T22:22:05.566Z,16.09
2018-03-29T22:24:31.573Z,16.09
2018-03-29T22:26:57.576Z,16.08
2018-03-29T22:29:24.412Z,16.08
2018-03-29T22:31:50.545Z,16.09
2018-03-29T22:34:17.333Z,16.08
2018-03-29T22:36:43.647Z,16.06
2018-03-29T22:39:09.683Z,16.05
2018-03-29T22:41:35.877Z,16.05
2018-03-29T22:44:02.785Z,16.04
2018-03-29T22:46:29.545Z,16.05
2018-03-29T22:48:56.403Z,16.04
2018-03-29T22:51:23.156Z,16.03
2018-03-29T22:53:49.173Z,16.03
2018-03-29T22:56:16.107Z,16.03
2018-03-29T22:58:42.853Z,16.03
2018-03-29T23:01:09.614Z,16.03
2018-03-29T23:03:35.660Z,16.00
2018-03-29T23:06:01.679Z,16.02
2018-03-29T23:08:27.727Z,16.00
2018-03-29T23:10:53.798Z,16.00
2018-03-29T23:13:20.582Z,15.99
2018-03-29T23:15:46.593Z,15.98
2018-03-29T23:18:12.616Z,15.98
2018-03-29T23:20:38.657Z,15.97
2018-03-29T23:23:04.698Z,15.95
2018-03-29T23:25:30.705Z,15.97
2018-03-29T23:27:56.720Z,15.97
2018-03-29T23:30:22.800Z,15.96
2018-03-29T23:32:50.289Z,15.95
2018-03-29T23:35:17.050Z,15.93
2018-03-29T23:37:43.042Z,15.94
2018-03-29T23:40:09.815Z,15.94
2018-03-29T23:42:35.890Z,15.93
2018-03-29T23:45:01.911Z,15.92
2018-03-29T23:47:28.701Z,15.92
2018-03-29T23:49:54.694Z,15.92
2018-03-29T23:52:21.466Z,15.92
2018-03-29T23:54:47.498Z,15.90
2018-03-29T23:57:13.527Z,15.90
2018-03-29T23:59:39.537Z,15.89
